Terminal Aerodrome Forecast
Issued by NWS Wilmington, NC

Home | Current Version | Previous Version | Text Only | Print | Product List | Glossary On
Versions: 1 2 3 4 5 6 7 8 9 10 11 12 13 14 15
472
FTUS42 KILM 240539
TAFMYR
TAF
KMYR 240539Z 2406/2506 23005KT P6SM SKC
     FM241300 21011KT P6SM SCT050
     FM241800 18010KT P6SM VCTS SCT040CB BKN250
     FM250100 21007KT P6SM FEW050 BKN150
      AMD LTD TO CLD VIS AND WIND TIL 241100=

USA.gov is the U.S. government's official web portal to all federal, state and local government web resources and services.